Time;durP1;ratioP1;P1;durP2;ratioP2;P2;SDS_P1;SDS_P2;PMS_P1;PMS_P2;Temp;Humidity;BMP_temperature;BMP_pressure;BME280_temperature;BME280_humidity;BME280_pressure;Samples;Min_cycle;Max_cycle;Signal;HPM_P1;HPM_P2
2022/02/06 00:01:46;;;;;;;79.18;10.02;;;8.00;99.90;;;;;;4860544;29;20199;-87
2022/02/06 00:04:13;;;;;;;73.67;10.30;;;8.00;99.90;;;;;;4860490;29;20544;-87
2022/02/06 00:06:38;;;;;;;74.82;20.27;;;7.90;99.90;;;;;;4861267;29;20179;-87
2022/02/06 00:09:04;;;;;;;72.27;17.67;;;7.90;99.90;;;;;;4861483;29;20655;-87
2022/02/06 00:11:30;;;;;;;77.10;19.40;;;7.80;99.90;;;;;;4861477;29;20258;-88
2022/02/06 00:13:56;;;;;;;73.47;20.47;;;7.80;99.90;;;;;;4861608;29;20191;-87
2022/02/06 00:16:25;;;;;;;74.60;18.92;;;7.80;99.90;;;;;;4861231;29;20199;-87
2022/02/06 00:18:51;;;;;;;75.13;20.35;;;7.80;99.90;;;;;;4864949;29;20704;-86
2022/02/06 00:21:19;;;;;;;74.20;19.10;;;7.80;99.90;;;;;;4865968;29;20183;-87
2022/02/06 00:23:48;;;;;;;75.85;24.50;;;7.70;99.90;;;;;;4864187;29;20175;-87
2022/02/06 00:26:29;;;;;;;77.43;24.42;;;7.70;99.90;;;;;;4864249;29;20216;-87
2022/02/06 00:29:23;;;;;;;75.35;25.33;;;7.70;99.90;;;;;;4865462;29;20167;-87
2022/02/06 00:39:15;;;;;;;75.00;23.60;;;7.70;99.90;;;;;;4865818;29;20643;-87
2022/02/06 00:41:41;;;;;;;74.87;21.50;;;7.70;99.90;;;;;;4864480;29;20202;-87
2022/02/06 00:44:09;;;;;;;74.25;16.75;;;7.70;99.90;;;;;;4865568;29;20917;-87
2022/02/06 00:46:39;;;;;;;74.20;19.45;;;7.70;99.90;;;;;;4864789;29;20208;-87
2022/02/06 00:49:27;;;;;;;73.32;18.00;;;7.70;99.90;;;;;;4866039;29;20182;-87
2022/02/06 00:52:21;;;;;;;76.95;25.42;;;7.70;99.90;;;;;;4864936;29;20215;-87
2022/02/06 00:54:47;;;;;;;78.22;25.70;;;7.70;99.90;;;;;;4864947;29;20203;-87
2022/02/06 00:57:13;;;;;;;76.17;27.53;;;7.80;99.90;;;;;;4865420;29;20581;-87
2022/02/06 00:59:38;;;;;;;81.30;27.27;;;7.80;99.90;;;;;;4866891;29;20188;-87
2022/02/06 01:02:04;;;;;;;76.33;23.97;;;7.80;99.90;;;;;;4865809;29;20199;-87
2022/02/06 01:04:34;;;;;;;75.77;25.93;;;7.80;99.90;;;;;;4866628;29;20536;-87
2022/02/06 01:07:01;;;;;;;73.80;21.88;;;7.80;99.90;;;;;;4866932;29;20168;-87
2022/02/06 01:09:26;;;;;;;78.97;25.63;;;7.80;99.90;;;;;;4865029;29;20175;-87
2022/02/06 01:11:53;;;;;;;78.20;24.17;;;7.90;99.90;;;;;;4866565;29;20271;-87
2022/02/06 01:14:41;;;;;;;76.18;26.75;;;7.90;99.90;;;;;;4865526;29;20168;-86
2022/02/06 01:17:29;;;;;;;77.05;22.90;;;7.90;99.90;;;;;;4865857;29;20685;-86
2022/02/06 01:20:15;;;;;;;77.55;26.30;;;7.90;99.90;;;;;;4864750;29;20204;-87
2022/02/06 01:22:58;;;;;;;91.80;51.08;;;8.00;99.90;;;;;;4865244;29;20187;-87
2022/02/06 01:25:32;;;;;;;76.72;21.05;;;8.00;99.90;;;;;;4863697;29;20219;-87
2022/02/06 01:28:05;;;;;;;81.05;25.48;;;8.00;99.90;;;;;;4865851;29;20148;-87
2022/02/06 01:30:54;;;;;;;78.22;26.48;;;8.00;99.90;;;;;;4864192;29;20175;-87
2022/02/06 01:33:28;;;;;;;78.35;27.13;;;8.10;99.90;;;;;;4866196;29;20159;-87
2022/02/06 01:36:22;;;;;;;76.68;24.20;;;8.10;99.90;;;;;;4864014;29;20621;-87
2022/02/06 01:41:32;;;;;;;73.50;16.83;;;8.20;99.90;;;;;;4865476;29;20163;-87
2022/02/06 01:44:04;;;;;;;74.93;21.08;;;8.10;99.90;;;;;;4865305;29;20218;-87
2022/02/06 01:46:47;;;;;;;75.18;21.92;;;8.10;99.90;;;;;;4865232;29;20559;-87
2022/02/06 02:13:48;;;;;;;75.30;15.80;;;8.10;99.90;;;;;;4883029;29;20551;-87
2022/02/06 02:47:25;;;;;;;76.63;24.85;;;8.50;99.90;;;;;;4883837;29;20231;-86
2022/02/06 02:49:55;;;;;;;74.18;21.35;;;8.50;99.90;;;;;;4882274;29;20170;-85
2022/02/06 02:52:49;;;;;;;81.57;22.52;;;8.60;99.90;;;;;;4883710;29;20173;-85
2022/02/06 02:55:29;;;;;;;78.47;27.70;;;8.50;99.90;;;;;;4882713;29;20217;-86
2022/02/06 02:58:15;;;;;;;75.70;26.27;;;8.50;99.90;;;;;;4885062;29;20158;-87
2022/02/06 03:03:18;;;;;;;73.93;19.70;;;8.60;99.90;;;;;;4883821;29;20227;-87
2022/02/06 03:05:47;;;;;;;73.78;12.68;;;8.50;99.90;;;;;;4882667;29;20186;-87
2022/02/06 03:08:13;;;;;;;75.97;16.88;;;8.60;99.90;;;;;;4882979;29;20226;-87
2022/02/06 03:10:39;;;;;;;74.30;13.17;;;8.50;99.90;;;;;;4884356;29;20167;-87
2022/02/06 03:13:09;;;;;;;73.47;12.20;;;8.50;99.90;;;;;;4882269;29;20202;-87
2022/02/06 03:15:51;;;;;;;76.22;16.90;;;8.60;99.90;;;;;;4884315;29;20435;-87
2022/02/06 03:18:22;;;;;;;70.18;10.18;;;8.60;99.90;;;;;;4884436;29;20237;-87
2022/02/06 03:20:50;;;;;;;73.47;17.90;;;8.60;99.90;;;;;;4868915;29;20159;-87
2022/02/06 03:23:16;;;;;;;78.30;17.42;;;8.60;99.90;;;;;;4882443;29;20289;-87
2022/02/06 03:25:52;;;;;;;74.97;26.60;;;8.60;99.90;;;;;;4882014;29;20225;-86
2022/02/06 03:28:18;;;;;;;78.03;28.50;;;8.60;99.90;;;;;;4883107;29;20407;-87
2022/02/06 03:30:44;;;;;;;81.95;28.00;;;8.60;99.90;;;;;;4882779;29;20174;-86
2022/02/06 03:33:10;;;;;;;90.50;31.83;;;8.50;99.90;;;;;;4884640;29;20661;-87
2022/02/06 03:35:36;;;;;;;77.05;21.17;;;8.50;99.90;;;;;;4883948;29;20194;-88
2022/02/06 03:38:02;;;;;;;77.25;22.55;;;8.50;99.90;;;;;;4884244;29;20169;-87
2022/02/06 03:40:33;;;;;;;74.03;17.20;;;8.40;99.90;;;;;;4884333;29;20171;-88
2022/02/06 03:43:17;;;;;;;79.55;26.98;;;8.40;99.90;;;;;;4883589;29;20193;-87
2022/02/06 03:45:56;;;;;;;75.03;18.23;;;8.30;99.90;;;;;;4882152;29;20190;-86
2022/02/06 03:48:27;;;;;;;119.10;104.78;;;8.20;99.90;;;;;;4884425;29;20154;-87
2022/02/06 03:51:05;;;;;;;87.47;56.78;;;8.10;99.90;;;;;;4883144;29;20658;-87
2022/02/06 03:53:31;;;;;;;90.35;65.18;;;8.10;99.90;;;;;;4885770;29;20170;-87
2022/02/06 03:55:58;;;;;;;87.47;57.87;;;8.00;99.90;;;;;;4887601;29;20663;-87
2022/02/06 03:58:24;;;;;;;80.70;42.95;;;8.00;99.90;;;;;;4885906;29;20419;-86
2022/02/06 04:00:50;;;;;;;89.20;49.77;;;8.00;99.90;;;;;;4887600;29;20222;-87
2022/02/06 04:03:18;;;;;;;96.73;76.67;;;7.90;99.90;;;;;;4887242;29;20199;-87
2022/02/06 04:05:55;;;;;;;146.38;133.18;;;7.80;99.90;;;;;;4885787;29;20218;-87
2022/02/06 04:08:21;;;;;;;172.90;159.30;;;7.90;99.90;;;;;;4885406;29;20177;-87
2022/02/06 04:10:50;;;;;;;152.17;139.07;;;7.80;99.90;;;;;;4886097;29;20167;-87
2022/02/06 04:13:23;;;;;;;186.15;171.65;;;7.80;99.90;;;;;;4885768;29;20500;-86
2022/02/06 04:15:59;;;;;;;184.88;170.60;;;7.80;99.90;;;;;;4884135;29;20235;-87
2022/02/06 04:21:12;;;;;;;172.73;158.90;;;7.80;99.90;;;;;;4886605;29;20166;-87
2022/02/06 04:23:39;;;;;;;202.75;187.90;;;7.90;99.90;;;;;;4886176;29;20171;-87
2022/02/06 04:26:04;;;;;;;192.23;177.90;;;7.80;99.90;;;;;;4886122;29;20242;-86
2022/02/06 04:28:39;;;;;;;175.93;162.03;;;7.90;99.90;;;;;;4885621;29;20167;-86
2022/02/06 04:31:15;;;;;;;180.25;166.70;;;7.90;99.90;;;;;;4886196;29;20230;-85
2022/02/06 04:33:41;;;;;;;160.93;147.65;;;7.90;99.90;;;;;;4886579;29;20155;-86
2022/02/06 04:36:12;;;;;;;130.33;117.70;;;8.00;99.90;;;;;;4886191;29;20187;-86
2022/02/06 04:41:28;;;;;;;155.63;142.37;;;8.00;99.90;;;;;;4884899;29;20163;-85
2022/02/06 04:46:46;;;;;;;152.03;139.07;;;8.00;99.90;;;;;;4884256;29;20193;-85
2022/02/06 04:52:44;;;;;;;159.00;145.68;;;8.10;99.90;;;;;;4884585;29;20666;-86
2022/02/06 04:55:33;;;;;;;131.93;119.47;;;8.00;99.90;;;;;;4883571;29;20214;-85
2022/02/06 05:30:16;;;;;;;170.43;156.88;;;8.10;99.90;;;;;;4874154;29;20210;-86
2022/02/06 05:33:17;;;;;;;219.98;204.60;;;8.00;99.90;;;;;;4884868;29;20186;-86
2022/02/06 05:35:38;;;;;;;183.40;169.50;;;7.90;99.90;;;;;;4881621;29;20331;-87
2022/02/06 05:38:04;;;;;;;206.60;191.82;;;7.90;99.90;;;;;;4884628;29;20181;-86
2022/02/06 05:40:32;;;;;;;197.20;183.10;;;8.00;99.90;;;;;;4882972;29;20178;-86
2022/02/06 05:42:58;;;;;;;161.10;148.25;;;7.90;99.90;;;;;;4884177;29;20201;-87
2022/02/06 05:45:27;;;;;;;173.07;159.80;;;8.00;99.90;;;;;;4884316;29;20266;-86
2022/02/06 05:47:53;;;;;;;169.02;155.82;;;8.00;99.90;;;;;;4884724;29;20682;-87
2022/02/06 05:50:23;;;;;;;222.00;206.27;;;8.00;99.90;;;;;;4884713;29;20171;-87
2022/02/06 05:52:55;;;;;;;190.30;176.40;;;8.00;99.90;;;;;;4885115;29;20836;-86
2022/02/06 05:55:21;;;;;;;180.68;167.00;;;8.00;99.90;;;;;;4884867;29;20226;-86
2022/02/06 05:57:49;;;;;;;187.40;173.30;;;8.00;99.90;;;;;;4884598;29;20174;-87
2022/02/06 06:00:15;;;;;;;134.32;122.50;;;8.00;99.90;;;;;;4883904;29;20438;-86
2022/02/06 06:02:47;;;;;;;152.68;140.02;;;8.00;99.90;;;;;;4884654;29;20246;-87
2022/02/06 06:05:13;;;;;;;137.98;125.78;;;8.00;99.90;;;;;;4884412;29;20198;-87
2022/02/06 06:07:51;;;;;;;196.82;182.02;;;8.00;99.90;;;;;;4884927;29;20241;-86
2022/02/06 06:10:31;;;;;;;171.00;157.48;;;7.90;99.90;;;;;;4882843;29;20178;-87
2022/02/06 06:13:00;;;;;;;148.38;135.63;;;8.00;99.90;;;;;;4883993;29;20178;-87
2022/02/06 06:15:36;;;;;;;130.38;118.70;;;8.00;99.90;;;;;;4882712;29;20191;-87
2022/02/06 06:18:05;;;;;;;154.95;141.88;;;7.90;99.90;;;;;;4883582;29;20170;-87
2022/02/06 06:20:35;;;;;;;159.95;147.30;;;7.90;99.90;;;;;;4884463;29;20268;-86
2022/02/06 06:23:04;;;;;;;167.63;154.27;;;7.80;99.90;;;;;;4884193;29;20544;-87
2022/02/06 06:25:40;;;;;;;141.20;129.10;;;7.80;99.90;;;;;;4882102;29;20573;-86
2022/02/06 06:28:10;;;;;;;131.45;119.70;;;7.80;99.90;;;;;;4882156;29;20195;-86
2022/02/06 06:30:45;;;;;;;197.57;183.02;;;7.80;99.90;;;;;;4882097;29;20206;-86
2022/02/06 06:33:15;;;;;;;179.90;166.13;;;7.80;99.90;;;;;;4882271;29;20177;-87
2022/02/06 06:35:44;;;;;;;159.45;146.75;;;7.80;99.90;;;;;;4883549;29;20194;-87
2022/02/06 06:38:14;;;;;;;165.35;152.02;;;7.80;99.90;;;;;;4883437;29;20174;-86
2022/02/06 06:40:40;;;;;;;172.25;159.30;;;7.80;99.90;;;;;;4882571;29;20265;-87
2022/02/06 06:43:05;;;;;;;185.63;171.47;;;7.80;99.90;;;;;;4882788;29;20616;-87
2022/02/06 06:45:34;;;;;;;156.37;143.63;;;7.90;99.90;;;;;;4884158;29;20202;-87
2022/02/06 06:48:00;;;;;;;159.38;146.70;;;7.90;99.90;;;;;;4883761;29;20222;-87
2022/02/06 06:50:32;;;;;;;150.47;138.10;;;7.90;99.90;;;;;;4883646;29;20170;-87
2022/02/06 06:53:10;;;;;;;156.88;144.32;;;7.80;99.90;;;;;;4883696;29;20174;-87
2022/02/06 06:55:42;;;;;;;153.45;140.98;;;7.90;99.90;;;;;;4883806;29;20233;-87
2022/02/06 06:58:20;;;;;;;122.28;110.85;;;7.90;99.90;;;;;;4882638;29;20189;-87
2022/02/06 07:01:20;;;;;;;166.82;153.05;;;7.90;99.90;;;;;;4883401;29;20165;-87
2022/02/06 07:03:47;;;;;;;132.00;119.78;;;7.90;99.90;;;;;;4883004;29;20182;-87
2022/02/06 07:06:23;;;;;;;176.43;162.60;;;8.00;99.90;;;;;;4882665;29;20316;-87
2022/02/06 07:08:52;;;;;;;155.32;142.77;;;8.00;99.90;;;;;;4881809;29;20179;-86
2022/02/06 07:11:43;;;;;;;147.80;135.15;;;8.00;99.90;;;;;;4883131;29;20181;-86
2022/02/06 07:14:41;;;;;;;158.55;145.15;;;8.10;99.90;;;;;;4882493;29;20197;-87
2022/02/06 07:20:23;;;;;;;139.95;127.40;;;8.10;99.90;;;;;;4878763;29;20189;-85
2022/02/06 07:22:54;;;;;;;138.90;126.90;;;8.20;99.90;;;;;;4880867;29;20202;-85
2022/02/06 07:25:20;;;;;;;113.90;102.53;;;8.10;99.90;;;;;;4880604;29;20616;-85
2022/02/06 07:27:48;;;;;;;148.77;135.67;;;8.20;99.90;;;;;;4879871;29;20210;-85
2022/02/06 07:30:15;;;;;;;124.43;112.28;;;8.20;99.90;;;;;;4880045;29;20206;-86
2022/02/06 07:32:44;;;;;;;113.30;101.63;;;8.30;99.90;;;;;;4880777;29;20175;-85
2022/02/06 07:35:14;;;;;;;101.68;86.60;;;8.30;99.90;;;;;;4881316;29;20566;-85
2022/02/06 07:38:00;;;;;;;108.32;96.82;;;8.30;99.90;;;;;;4880473;29;20166;-85
2022/02/06 07:40:40;;;;;;;120.15;108.32;;;8.30;99.90;;;;;;4880582;29;20162;-86
2022/02/06 07:43:15;;;;;;;97.40;86.20;;;8.30;99.90;;;;;;4880447;29;20202;-85
2022/02/06 07:45:47;;;;;;;87.10;60.25;;;8.30;99.90;;;;;;4881828;29;20186;-85
2022/02/06 07:48:20;;;;;;;114.78;103.05;;;8.30;99.90;;;;;;4882103;29;20698;-86
2022/02/06 07:50:49;;;;;;;82.70;46.53;;;8.30;99.90;;;;;;4881760;29;20158;-87
2022/02/06 07:53:15;;;;;;;93.00;62.85;;;8.30;99.90;;;;;;4883052;29;20177;-86
2022/02/06 08:02:30;;;;;;;83.90;51.33;;;8.30;99.90;;;;;;4883360;29;20221;-84
2022/02/06 08:17:55;;;;;;;73.70;22.52;;;8.30;99.90;;;;;;4788097;30;20368;-84
2022/02/06 08:21:21;;;;;;;77.20;27.95;;;8.30;99.90;;;;;;4805253;29;20693;-85
2022/02/06 08:24:41;;;;;;;;;;;;;;;;;;;;;
2022/02/06 08:27:35;;;;;;;73.47;22.30;;;8.40;99.90;;;;;;4808964;29;20672;-85
2022/02/06 08:41:25;;;;;;;;;;;;;;;;;;;;;
2022/02/06 08:48:22;;;;;;;73.65;23.20;;;8.30;99.90;;;;;;4739859;30;20179;-85
2022/02/06 09:05:02;;;;;;;;;;;;;;;;;;;;;
2022/02/06 09:08:12;;;;;;;78.25;30.52;;;8.30;99.90;;;;;;4846348;29;20190;-85
2022/02/06 09:11:16;;;;;;;;;;;;;;;;;;;;;
2022/02/06 09:14:27;;;;;;;75.43;27.70;;;8.30;99.90;;;;;;4866617;29;20262;-85
2022/02/06 09:17:56;;;;;;;;;;;;;;;;;;;;;
2022/02/06 09:53:48;;;;;;;93.35;74.93;;;8.20;99.90;;;;;;4664118;27;20281;-86
2022/02/06 10:00:38;;;;;;;126.75;114.70;;;8.20;99.90;;;;;;4838624;29;20184;-85
2022/02/06 10:03:23;;;;;;;107.82;95.78;;;8.10;99.90;;;;;;4852791;29;20212;-85
2022/02/06 10:05:55;;;;;;;109.40;96.97;;;8.10;99.90;;;;;;4922025;29;20181;-86
2022/02/06 10:08:39;;;;;;;137.43;125.00;;;8.10;99.90;;;;;;4926034;29;20169;-85
2022/02/06 10:11:14;;;;;;;107.10;95.85;;;8.10;99.90;;;;;;4925897;29;20145;-85
2022/02/06 10:13:41;;;;;;;105.50;93.85;;;8.10;99.90;;;;;;4925769;29;20157;-85
2022/02/06 10:16:13;;;;;;;105.45;94.63;;;8.10;99.90;;;;;;4924824;29;20220;-85
2022/02/06 10:18:39;;;;;;;88.70;64.93;;;8.10;99.90;;;;;;4924499;29;20165;-85
2022/02/06 10:21:07;;;;;;;94.47;79.78;;;8.10;99.90;;;;;;4924085;29;20165;-86
2022/02/06 10:24:27;;;;;;;130.10;117.82;;;8.10;99.90;;;;;;4923522;29;20189;-85
2022/02/06 10:27:38;;;;;;;112.65;100.78;;;8.00;99.90;;;;;;4903908;29;20188;-86
2022/02/06 10:38:09;;;;;;;105.22;92.43;;;8.00;99.90;;;;;;4861295;29;20686;-86
2022/02/06 10:40:47;;;;;;;127.95;115.85;;;8.00;99.90;;;;;;4847526;29;20235;-85
2022/02/06 10:43:27;;;;;;;128.73;116.55;;;8.00;99.90;;;;;;4864427;29;20820;-85
2022/02/06 10:53:20;;;;;;;142.07;129.98;;;7.80;99.90;;;;;;4866629;29;20179;-86
2022/02/06 10:59:19;;;;;;;130.25;118.47;;;8.00;99.90;;;;;;4892935;29;20177;-85
2022/02/06 11:02:31;;;;;;;213.55;198.18;;;7.90;99.90;;;;;;4917971;29;20201;-85
2022/02/06 11:08:54;;;;;;;162.10;149.25;;;7.80;99.90;;;;;;4917998;29;20201;-85
2022/02/06 11:15:56;;;;;;;162.52;149.27;;;7.80;99.90;;;;;;4829835;29;20208;-85
2022/02/06 11:46:40;;;;;;;100.88;88.93;;;7.70;99.90;;;;;;4884364;29;20205;-86
2022/02/06 12:00:36;;;;;;;89.85;68.88;;;7.60;99.90;;;;;;4735808;30;20230;-86
2022/02/06 12:04:32;;;;;;;90.95;75.30;;;7.60;99.90;;;;;;4790340;30;20749;-86
2022/02/06 12:07:38;;;;;;;;;;;;;;;;;;;;;
2022/02/06 12:10:13;;;;;;;108.90;97.50;;;7.70;99.90;;;;;;4789329;30;20639;-86
2022/02/06 12:23:54;;;;;;;;;;;;;;;;;;;;;
2022/02/06 12:26:41;;;;;;;246.38;229.90;;;7.60;99.90;;;;;;4870218;29;20277;-86
2022/02/06 12:29:52;;;;;;;210.18;195.55;;;7.60;99.90;;;;;;4928461;29;20169;-87
2022/02/06 12:32:45;;;;;;;219.60;204.40;;;7.60;99.90;;;;;;4925489;29;20173;-86
2022/02/06 12:38:05;;;;;;;173.25;159.75;;;7.80;99.90;;;;;;4927228;29;20154;-86
2022/02/06 12:40:30;;;;;;;237.10;220.80;;;7.80;99.90;;;;;;4926944;29;20220;-85
2022/02/06 12:43:02;;;;;;;195.13;181.07;;;7.80;99.90;;;;;;4925421;29;20201;-85
2022/02/06 12:45:30;;;;;;;242.15;225.90;;;7.80;99.90;;;;;;4924732;29;20181;-84
2022/02/06 12:48:02;;;;;;;227.88;211.90;;;7.90;99.90;;;;;;4923547;29;20237;-85
2022/02/06 12:50:33;;;;;;;235.75;220.10;;;7.90;99.90;;;;;;4923235;29;20170;-85
2022/02/06 12:53:00;;;;;;;215.65;200.65;;;8.00;99.90;;;;;;4921379;29;20241;-86
2022/02/06 12:55:31;;;;;;;233.38;217.52;;;8.00;99.90;;;;;;4922326;29;20733;-85
2022/02/06 12:57:57;;;;;;;252.88;236.18;;;8.10;99.90;;;;;;4922814;29;20165;-86
2022/02/06 13:00:34;;;;;;;211.18;196.48;;;8.30;99.90;;;;;;4921858;29;20168;-86
2022/02/06 13:03:33;;;;;;;226.25;210.68;;;8.40;99.90;;;;;;4922616;29;20205;-84
2022/02/06 13:06:10;;;;;;;149.77;137.35;;;8.70;99.90;;;;;;4922745;29;20535;-86
2022/02/06 13:08:39;;;;;;;398.75;370.40;;;8.80;99.90;;;;;;4921292;29;20256;-86
2022/02/06 13:11:23;;;;;;;178.98;165.02;;;9.00;99.90;;;;;;4923157;29;20578;-85
2022/02/06 13:14:03;;;;;;;137.30;125.38;;;9.10;99.90;;;;;;4924996;29;20161;-86
2022/02/06 13:25:31;;;;;;;183.73;169.75;;;9.30;99.90;;;;;;4870211;29;20238;-86
2022/02/06 13:40:21;;;;;;;239.48;221.90;;;9.00;99.90;;;;;;4861841;29;20183;-87
2022/02/06 13:43:25;;;;;;;146.88;134.10;;;8.70;99.90;;;;;;4861489;29;20294;-88
2022/02/06 13:45:57;;;;;;;124.40;112.80;;;8.40;99.90;;;;;;4863848;29;20259;-88
2022/02/06 13:48:29;;;;;;;237.10;220.00;;;8.20;99.90;;;;;;4863335;29;20180;-89
2022/02/06 13:50:58;;;;;;;176.50;161.55;;;8.00;99.90;;;;;;4863593;29;20628;-89
2022/02/06 13:53:26;;;;;;;285.23;264.73;;;7.90;99.90;;;;;;4862259;29;20184;-89
2022/02/06 13:56:17;;;;;;;;;;;;;;;;;;;;;
2022/02/06 13:59:49;;;;;;;143.07;130.63;;;7.80;99.90;;;;;;4885789;29;20250;-87
2022/02/06 14:02:27;;;;;;;105.50;94.68;;;7.80;99.90;;;;;;4884035;29;20218;-87
2022/02/06 14:05:04;;;;;;;222.38;206.13;;;7.60;99.90;;;;;;4871175;29;20620;-87
2022/02/06 14:08:23;;;;;;;107.97;96.72;;;7.50;99.90;;;;;;4883252;29;20174;-87
2022/02/06 14:14:56;;;;;;;103.88;92.88;;;7.30;99.90;;;;;;4886902;29;20166;-87
2022/02/06 14:18:22;;;;;;;;;;;;;;;;;;;;;
2022/02/06 14:21:11;;;;;;;93.18;82.10;;;7.30;99.90;;;;;;4887114;29;20230;-87
2022/02/06 14:24:13;;;;;;;97.47;85.57;;;7.30;99.90;;;;;;4886888;29;20189;-86
2022/02/06 14:27:54;;;;;;;111.63;100.20;;;7.30;99.90;;;;;;4885929;29;20190;-87
2022/02/06 14:30:40;;;;;;;109.32;98.45;;;7.30;99.90;;;;;;4850460;29;20609;-87
2022/02/06 14:33:37;;;;;;;127.68;116.03;;;7.30;99.90;;;;;;4865631;29;20412;-87
2022/02/06 14:36:44;;;;;;;125.90;114.22;;;7.30;99.90;;;;;;4884827;29;20206;-87
2022/02/06 14:39:20;;;;;;;102.70;92.07;;;7.20;99.90;;;;;;4838381;29;20562;-87
2022/02/06 14:45:49;;;;;;;102.78;92.20;;;7.30;99.90;;;;;;4873112;23;20230;-87
2022/02/06 14:49:04;;;;;;;92.25;80.78;;;7.30;99.90;;;;;;4876225;29;20635;-86
2022/02/06 14:52:07;;;;;;;115.30;104.07;;;7.30;99.90;;;;;;4856045;29;20182;-87
2022/02/06 14:54:43;;;;;;;102.30;91.72;;;7.20;99.90;;;;;;4845515;29;20564;-87
2022/02/06 14:57:33;;;;;;;158.15;145.02;;;7.20;99.90;;;;;;4849029;29;20178;-86
2022/02/06 15:00:17;;;;;;;104.38;93.55;;;7.20;99.90;;;;;;4863134;29;20262;-87
2022/02/06 15:02:45;;;;;;;121.78;110.40;;;7.20;99.90;;;;;;4863634;29;20202;-87
2022/02/06 15:05:28;;;;;;;117.55;106.45;;;7.20;99.90;;;;;;4864172;29;20274;-86
2022/02/06 15:08:55;;;;;;;118.82;107.60;;;7.20;99.90;;;;;;4864606;29;20163;-86
2022/02/06 15:11:09;;;;;;;122.35;110.90;;;7.20;99.90;;;;;;4859942;29;20206;-86
2022/02/06 15:14:00;;;;;;;114.07;102.68;;;7.10;99.90;;;;;;4864180;29;20166;-86
2022/02/06 15:16:58;;;;;;;;;;;;;;;;;;;;;
2022/02/06 15:19:57;;;;;;;;;;;;;;;;;;;;;
2022/02/06 15:23:23;;;;;;;105.22;94.40;;;7.10;99.90;;;;;;4862131;29;20207;-86
2022/02/06 15:26:16;;;;;;;118.38;106.90;;;7.10;99.90;;;;;;4960439;23;20254;-86
2022/02/06 15:32:44;;;;;;;;;;;;;;;;;;;;;
2022/02/06 15:38:49;;;;;;;;;;;;;;;;;;;;;
2022/02/06 15:45:06;;;;;;;94.45;76.07;;;7.10;99.90;;;;;;4839775;29;20190;-87
2022/02/06 15:48:29;;;;;;;;;;;;;;;;;;;;;
2022/02/06 15:51:47;;;;;;;134.15;122.28;;;7.00;99.90;;;;;;4849351;29;20289;-87
2022/02/06 15:55:26;;;;;;;107.10;95.97;;;7.10;99.90;;;;;;4866952;29;20175;-87
2022/02/06 15:58:31;;;;;;;102.25;90.43;;;7.00;99.90;;;;;;4792856;29;20804;-87
2022/02/06 16:04:38;;;;;;;101.25;90.70;;;7.00;99.90;;;;;;4808886;29;20209;-87
2022/02/06 16:07:18;;;;;;;94.75;79.40;;;6.90;99.90;;;;;;4810984;29;20189;-87
2022/02/06 16:10:31;;;;;;;110.00;98.95;;;7.00;99.90;;;;;;4811282;29;20298;-87
2022/02/06 16:13:00;;;;;;;103.05;92.30;;;6.90;99.90;;;;;;4864364;29;20179;-87
2022/02/06 16:15:35;;;;;;;104.53;93.38;;;7.00;99.90;;;;;;4863203;29;20188;-87
2022/02/06 16:18:05;;;;;;;111.35;100.35;;;6.90;99.90;;;;;;4864745;29;20515;-86
2022/02/06 16:20:36;;;;;;;109.55;98.60;;;7.00;99.90;;;;;;4863292;29;20537;-87
2022/02/06 16:23:08;;;;;;;131.55;119.60;;;6.90;99.90;;;;;;4864694;29;20183;-86
2022/02/06 16:25:44;;;;;;;106.47;95.80;;;7.00;99.90;;;;;;4863710;29;20297;-87
2022/02/06 16:28:22;;;;;;;123.47;111.53;;;7.00;99.90;;;;;;4864995;29;20160;-87
2022/02/06 16:31:05;;;;;;;95.88;83.68;;;7.00;99.90;;;;;;4864253;29;20199;-86
2022/02/06 16:33:39;;;;;;;104.63;93.85;;;7.00;99.90;;;;;;4862662;29;20172;-87
2022/02/06 16:39:05;;;;;;;129.32;117.68;;;7.00;99.90;;;;;;4864375;29;20255;-86
2022/02/06 16:41:37;;;;;;;93.80;83.32;;;6.90;99.90;;;;;;4863152;29;20186;-86
2022/02/06 16:44:32;;;;;;;120.25;108.93;;;6.90;99.90;;;;;;4864411;29;20217;-86
2022/02/06 16:47:03;;;;;;;104.28;93.18;;;7.00;99.90;;;;;;4859025;29;20529;-86
2022/02/06 16:49:48;;;;;;;131.98;119.93;;;7.00;99.90;;;;;;4863582;29;20252;-86
2022/02/06 16:52:23;;;;;;;103.25;92.43;;;7.00;99.90;;;;;;4862734;29;20172;-86
2022/02/06 16:55:18;;;;;;;114.60;103.60;;;7.10;99.90;;;;;;4862421;29;20195;-86
2022/02/06 16:58:28;;;;;;;129.95;117.82;;;7.00;99.90;;;;;;4863290;29;20233;-86
2022/02/06 17:04:24;;;;;;;108.15;96.85;;;7.10;99.90;;;;;;4867507;29;20583;-86
2022/02/06 17:07:18;;;;;;;99.80;89.20;;;7.10;99.90;;;;;;4866626;29;20179;-87
2022/02/06 17:09:43;;;;;;;107.28;96.53;;;7.10;99.90;;;;;;4866659;29;20178;-86
2022/02/06 17:12:11;;;;;;;115.07;103.53;;;7.20;99.90;;;;;;4866570;29;20167;-87
2022/02/06 17:14:43;;;;;;;140.30;127.75;;;7.30;99.90;;;;;;4867246;29;20412;-86
2022/02/06 17:17:25;;;;;;;130.60;118.85;;;7.30;99.90;;;;;;4865105;29;20323;-86
2022/02/06 17:19:57;;;;;;;135.10;122.95;;;7.40;99.90;;;;;;4864860;29;20167;-86
2022/02/06 17:22:25;;;;;;;107.82;96.80;;;7.40;99.90;;;;;;4866481;29;20203;-86
2022/02/06 17:25:02;;;;;;;93.05;80.00;;;7.30;99.90;;;;;;4865305;29;20199;-86
2022/02/06 17:27:33;;;;;;;87.60;64.82;;;7.30;99.90;;;;;;4866282;29;20201;-86
2022/02/06 17:30:09;;;;;;;95.25;78.35;;;7.40;99.90;;;;;;4866299;29;20155;-86
2022/02/06 17:32:50;;;;;;;95.82;75.60;;;7.30;99.90;;;;;;4864645;29;20185;-86
2022/02/06 17:35:39;;;;;;;91.60;66.55;;;7.30;99.90;;;;;;4866419;29;20191;-86
2022/02/06 17:38:07;;;;;;;86.10;53.30;;;7.40;99.90;;;;;;4864135;29;20182;-86
2022/02/06 17:40:47;;;;;;;86.57;53.50;;;7.30;99.90;;;;;;4864970;29;20175;-86
2022/02/06 17:43:18;;;;;;;96.97;80.88;;;7.30;99.90;;;;;;4865034;29;20209;-85
2022/02/06 17:45:55;;;;;;;95.90;73.47;;;7.20;99.90;;;;;;4864104;29;20191;-86
2022/02/06 17:48:30;;;;;;;95.38;73.35;;;7.20;99.90;;;;;;4865013;29;20152;-86
2022/02/06 17:51:08;;;;;;;85.80;57.45;;;7.20;99.90;;;;;;4865062;29;20631;-87
2022/02/06 17:54:25;;;;;;;100.35;85.30;;;7.30;99.90;;;;;;4867136;29;20185;-87
2022/02/06 17:57:41;;;;;;;98.07;87.50;;;7.20;99.90;;;;;;4865721;29;20544;-86
2022/02/06 18:00:23;;;;;;;109.65;98.65;;;7.30;99.90;;;;;;4864189;29;20567;-87
2022/02/06 18:03:14;;;;;;;118.55;107.22;;;7.20;99.90;;;;;;4864915;29;20279;-87
2022/02/06 18:09:08;;;;;;;121.40;109.60;;;7.20;99.90;;;;;;4857202;29;20190;-86
2022/02/06 18:11:34;;;;;;;136.45;124.50;;;7.20;99.90;;;;;;4880319;29;20183;-86
2022/02/06 18:14:10;;;;;;;103.53;92.67;;;7.20;99.90;;;;;;4866072;29;20179;-86
2022/02/06 18:17:03;;;;;;;135.93;123.63;;;7.20;99.90;;;;;;4865672;29;20501;-86
2022/02/06 18:19:47;;;;;;;113.78;102.10;;;7.20;99.90;;;;;;4862435;29;20187;-86
2022/02/06 18:22:22;;;;;;;99.85;89.15;;;7.30;99.90;;;;;;4866773;29;20182;-86
2022/02/06 18:24:59;;;;;;;133.20;120.90;;;7.30;99.90;;;;;;4866977;29;20193;-86
2022/02/06 18:27:32;;;;;;;139.20;126.70;;;7.30;99.90;;;;;;4865243;29;20202;-86
2022/02/06 18:29:58;;;;;;;110.80;99.85;;;7.30;99.90;;;;;;4866583;29;20168;-86
2022/02/06 18:32:23;;;;;;;131.03;119.27;;;7.30;99.90;;;;;;4866291;29;20628;-86
2022/02/06 18:35:18;;;;;;;143.30;130.73;;;7.40;99.90;;;;;;4865509;29;20184;-86
2022/02/06 18:37:56;;;;;;;101.43;90.60;;;7.30;99.90;;;;;;4864893;29;20613;-86
2022/02/06 18:40:26;;;;;;;117.68;106.30;;;7.30;99.90;;;;;;4865441;29;20594;-86
2022/02/06 18:43:04;;;;;;;155.60;142.40;;;7.40;99.90;;;;;;4865393;29;20202;-86
2022/02/06 18:45:45;;;;;;;103.75;93.07;;;7.40;99.90;;;;;;4866632;29;20195;-86
2022/02/06 18:49:21;;;;;;;119.10;107.53;;;7.40;99.90;;;;;;4865066;29;20167;-86
2022/02/06 18:52:37;;;;;;;100.43;89.65;;;7.40;99.90;;;;;;4827310;29;20184;-86
2022/02/06 18:55:38;;;;;;;99.97;88.32;;;7.40;99.90;;;;;;4876318;23;20237;-86
2022/02/06 18:58:38;;;;;;;174.20;159.77;;;7.40;99.90;;;;;;4869430;29;20182;-87
2022/02/06 19:01:04;;;;;;;153.00;140.13;;;7.40;99.90;;;;;;4865755;29;20714;-87
2022/02/06 19:03:32;;;;;;;185.00;170.85;;;7.40;99.90;;;;;;4881348;29;20678;-87
2022/02/06 19:06:22;;;;;;;110.68;97.82;;;7.30;99.90;;;;;;4880359;29;20190;-87
2022/02/06 19:08:50;;;;;;;152.93;138.32;;;6.60;99.90;;;;;;4881483;29;20178;-88
2022/02/06 19:12:02;;;;;;;140.55;126.65;;;5.70;99.90;;;;;;4880177;29;20188;-88
2022/02/06 19:18:29;;;;;;;139.57;126.88;;;4.40;99.90;;;;;;4880429;29;20249;-88
2022/02/06 19:21:42;;;;;;;129.85;118.22;;;4.40;99.90;;;;;;4876725;29;20191;-88
2022/02/06 19:24:14;;;;;;;180.80;166.93;;;4.40;99.90;;;;;;4850949;29;20209;-87
2022/02/06 19:26:58;;;;;;;337.83;317.17;;;4.50;99.90;;;;;;4880144;29;20230;-88